sim
Sign-in with your pilot id or email,
or register
Callsign
Passwort

Schedule Details

Flight Number: DLH2015
Departure: Dusseldorf International Airport (EDDL) at 16:25
Arrival: Munich Airport (EDDM) at 17:35
Route: Lufthansa Passenger Schedule. Enter filed route here before submitting Pirep.

Weather Information
Getting current METAR information for EDDL 211750Z VRB02KT CAVOK 19/08 Q1013 NOSIG
Getting current METAR information for EDDM 211750Z VRB01KT CAVOK 16/13 Q1015 NOSIG

Schedule Frequency

Route Map